createdAt,value
2022-12-23T00:00:35.291Z,13.25
2022-12-23T00:03:04.515Z,10.18
2022-12-23T00:05:44.044Z,15.93
2022-12-23T00:08:11.282Z,8.57
2022-12-23T00:10:43.184Z,14.18
2022-12-23T00:13:30.560Z,12.40
2022-12-23T00:16:03.027Z,22.48
2022-12-23T00:18:33.170Z,13.82
2022-12-23T00:21:08.591Z,9.68
2022-12-23T00:23:39.207Z,6.78
2022-12-23T00:26:17.874Z,7.03
2022-12-23T00:28:45.307Z,7.72
2022-12-23T00:31:16.946Z,11.27
2022-12-23T00:33:48.415Z,8.48
2022-12-23T00:36:31.947Z,13.77
2022-12-23T00:39:21.133Z,8.45
2022-12-23T00:42:14.758Z,18.20
2022-12-23T00:44:53.977Z,8.50
2022-12-23T00:47:51.511Z,6.97
2022-12-23T00:50:21.466Z,6.40
2022-12-23T00:52:49.405Z,6.95
2022-12-23T00:55:17.145Z,6.32
2022-12-23T00:57:44.361Z,7.40
2022-12-23T01:00:12.378Z,6.93
2022-12-23T01:02:58.515Z,6.63
2022-12-23T01:05:39.374Z,13.23
2022-12-23T01:08:14.224Z,7.70
2022-12-23T01:10:41.840Z,8.18
2022-12-23T01:13:09.582Z,7.70
2022-12-23T01:15:37.049Z,7.38
2022-12-23T01:18:07.788Z,6.72
2022-12-23T01:20:38.984Z,8.13
2022-12-23T01:23:09.635Z,7.70
2022-12-23T01:25:38.652Z,8.07
2022-12-23T01:28:05.744Z,7.30
2022-12-23T01:30:32.760Z,17.85
2022-12-23T01:33:00.390Z,8.80
2022-12-23T01:35:30.041Z,8.45
2022-12-23T01:37:57.653Z,6.93
2022-12-23T01:40:24.960Z,7.50
2022-12-23T01:42:52.541Z,8.30
2022-12-23T01:45:29.201Z,8.52
2022-12-23T01:48:15.102Z,8.30
2022-12-23T01:50:45.581Z,8.05
2022-12-23T01:53:33.384Z,7.72
2022-12-23T01:56:13.505Z,8.43
2022-12-23T01:58:46.515Z,8.60
2022-12-23T02:01:33.447Z,7.57
2022-12-23T02:04:12.036Z,8.63
2022-12-23T02:07:03.037Z,10.07
2022-12-23T02:09:36.979Z,9.43
2022-12-23T02:12:34.226Z,8.23
2022-12-23T02:17:56.496Z,9.50
2022-12-23T02:20:30.189Z,11.95
2022-12-23T02:23:13.165Z,12.20
2022-12-23T02:25:58.809Z,10.05
2022-12-23T02:28:50.301Z,9.63
2022-12-23T02:31:42.549Z,11.60
2022-12-23T02:34:22.614Z,11.27
2022-12-23T02:37:14.494Z,11.18
2022-12-23T02:39:54.624Z,9.15
2022-12-23T02:42:33.680Z,9.52
2022-12-23T02:45:24.685Z,9.93
2022-12-23T02:48:07.996Z,10.75
2022-12-23T02:50:39.436Z,8.35
2022-12-23T02:53:29.839Z,9.50
2022-12-23T02:56:02.445Z,10.30
2022-12-23T02:58:37.642Z,9.13
2022-12-23T03:01:07.540Z,12.38
2022-12-23T03:03:36.933Z,10.40
2022-12-23T03:06:23.159Z,10.18
2022-12-23T03:09:00.746Z,9.43
2022-12-23T03:12:02.008Z,9.07
2022-12-23T03:15:09.307Z,8.20
2022-12-23T03:18:00.865Z,10.00
2022-12-23T03:20:51.370Z,9.30
2022-12-23T03:23:30.969Z,8.23
2022-12-23T03:26:14.772Z,9.63
2022-12-23T03:29:00.643Z,10.63
2022-12-23T03:31:31.210Z,8.07
2022-12-23T03:34:07.023Z,8.73
2022-12-23T03:36:49.254Z,8.93
2022-12-23T03:39:27.360Z,10.30
2022-12-23T03:42:01.221Z,9.20
2022-12-23T03:45:19.186Z,10.68
2022-12-23T03:47:45.464Z,8.43
2022-12-23T03:50:18.946Z,10.65
2022-12-23T03:53:35.766Z,9.95
2022-12-23T03:56:13.466Z,9.43
2022-12-23T03:59:11.540Z,10.13
2022-12-23T04:02:26.809Z,8.07
2022-12-23T04:05:14.346Z,12.43
2022-12-23T04:08:08.264Z,8.85
2022-12-23T04:10:38.773Z,9.18
2022-12-23T04:13:08.897Z,8.25
2022-12-23T04:15:43.723Z,11.40
2022-12-23T04:18:11.790Z,9.35
2022-12-23T04:20:39.256Z,8.40
2022-12-23T04:23:09.779Z,8.85
2022-12-23T04:25:37.574Z,8.75
2022-12-23T04:28:18.571Z,9.32
2022-12-23T04:30:48.779Z,12.70
2022-12-23T04:33:16.256Z,8.30
2022-12-23T04:35:45.903Z,8.63
2022-12-23T04:38:13.525Z,7.97
2022-12-23T04:40:41.002Z,9.95
2022-12-23T04:43:10.746Z,8.07
2022-12-23T04:45:40.936Z,8.93
2022-12-23T04:48:08.099Z,7.65
2022-12-23T04:50:45.607Z,9.30
2022-12-23T04:53:13.505Z,7.85
2022-12-23T04:55:40.881Z,7.97
2022-12-23T04:58:14.445Z,7.82
2022-12-23T05:00:41.966Z,10.45
2022-12-23T05:03:14.609Z,9.23
2022-12-23T05:05:45.091Z,8.38
2022-12-23T05:08:12.522Z,10.02
2022-12-23T05:10:40.038Z,9.10
2022-12-23T05:13:10.361Z,10.85
2022-12-23T05:15:40.233Z,10.93
2022-12-23T05:18:07.384Z,10.77
2022-12-23T05:20:35.499Z,8.38
2022-12-23T05:23:06.266Z,9.15
2022-12-23T05:25:38.022Z,9.55
2022-12-23T05:30:36.582Z,10.57
2022-12-23T05:33:06.078Z,10.25
2022-12-23T05:35:36.777Z,10.20
2022-12-23T05:38:04.805Z,9.25
2022-12-23T05:40:34.080Z,9.43
2022-12-23T05:43:01.956Z,9.27
2022-12-23T05:45:35.467Z,8.38
2022-12-23T05:48:02.613Z,9.55
2022-12-23T05:50:29.859Z,10.13
2022-12-23T05:52:57.926Z,8.50
2022-12-23T05:55:26.721Z,8.10
2022-12-23T05:57:55.501Z,7.93
2022-12-23T06:00:23.062Z,9.32
2022-12-23T06:02:54.630Z,8.82
2022-12-23T06:05:22.899Z,8.43
2022-12-23T06:07:54.756Z,15.48
2022-12-23T06:10:27.236Z,10.90
2022-12-23T06:12:57.094Z,12.20
2022-12-23T06:15:24.467Z,9.32
2022-12-23T06:18:02.274Z,8.65
2022-12-23T06:20:41.566Z,9.18
2022-12-23T06:23:09.468Z,8.05
2022-12-23T06:25:38.950Z,9.25
2022-12-23T06:28:10.107Z,9.50
2022-12-23T06:30:38.179Z,10.85
2022-12-23T06:33:06.289Z,11.20
2022-12-23T06:35:34.354Z,9.65
2022-12-23T06:41:53.480Z,10.02
2022-12-23T06:44:24.258Z,9.63
2022-12-23T06:46:51.506Z,11.05
2022-12-23T06:49:24.371Z,20.83
2022-12-23T06:51:51.704Z,22.75
2022-12-23T06:54:22.849Z,20.05
2022-12-23T06:57:01.347Z,22.40
2022-12-23T06:59:33.852Z,17.90
2022-12-23T07:02:14.505Z,23.33
2022-12-23T07:04:44.901Z,26.30
2022-12-23T07:07:15.171Z,17.50
2022-12-23T07:09:42.580Z,15.68
2022-12-23T07:12:10.302Z,12.70
2022-12-23T07:15:07.347Z,13.32
2022-12-23T07:17:47.399Z,14.63
2022-12-23T07:20:19.525Z,12.80
2022-12-23T07:22:57.162Z,9.25
2022-12-23T07:25:30.915Z,10.60
2022-12-23T07:27:58.193Z,10.27
2022-12-23T07:30:26.243Z,10.70
2022-12-23T07:32:54.442Z,11.40
2022-12-23T07:35:30.584Z,11.00
2022-12-23T07:38:03.941Z,9.57
2022-12-23T07:40:31.108Z,10.57
2022-12-23T07:43:00.202Z,9.98
2022-12-23T07:45:30.207Z,11.52
2022-12-23T07:48:02.488Z,12.40
2022-12-23T07:50:33.402Z,11.70
2022-12-23T07:53:03.238Z,11.68
2022-12-23T07:55:31.494Z,12.13
2022-12-23T07:58:05.385Z,10.18
2022-12-23T08:00:35.695Z,11.52
2022-12-23T08:03:12.329Z,9.82
2022-12-23T08:05:45.219Z,12.25
2022-12-23T08:08:14.575Z,15.93
2022-12-23T08:10:48.317Z,16.30
2022-12-23T08:13:18.627Z,15.93
2022-12-23T08:15:51.684Z,16.40
2022-12-23T08:18:19.100Z,15.60
2022-12-23T08:21:01.935Z,14.85
2022-12-23T08:23:38.334Z,12.65
2022-12-23T08:26:14.313Z,14.57
2022-12-23T08:28:44.027Z,18.23
2022-12-23T08:31:26.005Z,16.48
2022-12-23T08:33:58.018Z,13.40
2022-12-23T08:39:04.417Z,12.70
2022-12-23T08:41:35.729Z,11.25
2022-12-23T08:44:09.024Z,11.05
2022-12-23T08:46:37.432Z,9.88
2022-12-23T08:49:10.899Z,9.80
2022-12-23T08:51:42.043Z,16.30
2022-12-23T08:54:15.838Z,11.02
2022-12-23T08:56:43.147Z,10.10
2022-12-23T08:59:25.132Z,10.27
2022-12-23T09:02:02.974Z,11.98
2022-12-23T09:04:31.809Z,12.50
2022-12-23T09:07:04.742Z,11.20
2022-12-23T09:10:00.170Z,11.35
2022-12-23T09:12:32.177Z,9.52
2022-12-23T09:14:59.847Z,9.90
2022-12-23T09:17:27.675Z,9.98
2022-12-23T09:19:57.905Z,10.10
2022-12-23T09:22:35.199Z,11.82
2022-12-23T09:25:06.715Z,12.05
2022-12-23T09:27:36.046Z,11.45
2022-12-23T09:30:12.651Z,9.90
2022-12-23T09:32:44.093Z,8.75
2022-12-23T09:35:16.558Z,11.65
2022-12-23T09:38:04.443Z,9.60
2022-12-23T09:40:37.289Z,12.45
2022-12-23T09:43:37.497Z,9.38
2022-12-23T09:46:26.705Z,10.90
2022-12-23T09:49:24.823Z,11.18
2022-12-23T09:52:23.067Z,11.30
2022-12-23T09:55:18.618Z,9.18
2022-12-23T09:58:01.425Z,9.52
2022-12-23T10:00:43.640Z,8.85
2022-12-23T10:03:28.951Z,9.25
2022-12-23T10:06:20.468Z,8.48
2022-12-23T10:08:54.775Z,8.10
2022-12-23T10:11:57.462Z,6.20
2022-12-23T10:14:31.730Z,6.32
2022-12-23T10:17:05.993Z,6.75
2022-12-23T10:19:44.262Z,8.02
2022-12-23T10:24:48.662Z,6.53
2022-12-23T10:27:26.769Z,7.00
2022-12-23T10:29:56.980Z,6.82
2022-12-23T10:32:47.001Z,7.40
2022-12-23T10:35:58.177Z,7.10
2022-12-23T10:38:52.755Z,8.50
2022-12-23T10:41:23.061Z,8.15
2022-12-23T10:45:00.207Z,6.97
2022-12-23T10:48:11.939Z,9.27
2022-12-23T10:50:52.443Z,9.88
2022-12-23T10:53:59.127Z,9.95
2022-12-23T10:56:31.451Z,10.18
2022-12-23T10:59:04.656Z,13.02
2022-12-23T11:01:41.465Z,10.48
2022-12-23T11:04:31.693Z,13.30
2022-12-23T11:07:42.691Z,9.55
2022-12-23T11:10:20.805Z,10.57
2022-12-23T11:12:56.709Z,7.53
2022-12-23T11:18:43.839Z,5.90
2022-12-23T11:21:15.373Z,7.75
2022-12-23T11:24:02.735Z,6.93
2022-12-23T11:27:01.917Z,6.57
2022-12-23T11:29:50.903Z,6.53
2022-12-23T11:32:26.724Z,8.05
2022-12-23T11:35:03.279Z,8.95
2022-12-23T11:37:42.030Z,10.35
2022-12-23T11:40:40.565Z,9.50
2022-12-23T11:43:19.021Z,10.88
2022-12-23T11:46:27.743Z,11.85
2022-12-23T11:49:25.711Z,8.13
2022-12-23T11:52:12.556Z,8.00
2022-12-23T11:54:57.252Z,11.88
2022-12-23T11:57:38.586Z,9.20
2022-12-23T12:00:14.150Z,9.77
2022-12-23T12:03:11.713Z,8.45
2022-12-23T12:05:46.880Z,8.32
2022-12-23T12:08:36.602Z,9.63
2022-12-23T12:11:17.403Z,8.65
2022-12-23T12:16:55.997Z,7.53
2022-12-23T12:19:45.629Z,8.57
2022-12-23T12:22:38.859Z,7.30
2022-12-23T12:25:39.966Z,8.85
2022-12-23T12:28:28.952Z,8.73
2022-12-23T12:31:14.208Z,10.73
2022-12-23T12:33:59.438Z,9.82
2022-12-23T12:37:08.956Z,8.45
2022-12-23T12:40:06.576Z,8.27
2022-12-23T12:43:04.331Z,7.15
2022-12-23T12:46:04.636Z,5.43
2022-12-23T12:48:47.208Z,9.52
2022-12-23T12:51:49.453Z,7.75
2022-12-23T12:54:44.817Z,8.25
2022-12-23T12:57:27.576Z,8.25
2022-12-23T13:00:06.409Z,7.82
2022-12-23T13:03:00.799Z,7.28
2022-12-23T13:06:11.170Z,6.45
2022-12-23T13:09:18.288Z,7.13
2022-12-23T13:12:25.197Z,6.78
2022-12-23T13:15:32.550Z,6.97
2022-12-23T13:18:23.719Z,7.50
2022-12-23T13:21:17.013Z,6.78
2022-12-23T13:24:10.654Z,6.32
2022-12-23T13:26:46.053Z,6.93
2022-12-23T13:29:56.138Z,6.75
2022-12-23T13:33:08.130Z,6.38
2022-12-23T13:35:35.576Z,8.45
2022-12-23T13:38:20.340Z,7.68
2022-12-23T13:41:13.124Z,10.73
2022-12-23T13:43:49.705Z,7.03
2022-12-23T13:46:23.787Z,6.57
2022-12-23T13:48:53.807Z,8.60
2022-12-23T13:51:41.666Z,9.15
2022-12-23T13:54:15.077Z,7.93
2022-12-23T13:57:11.150Z,8.88
2022-12-23T13:59:44.775Z,9.38
2022-12-23T14:02:36.888Z,10.00
2022-12-23T14:05:37.979Z,8.18
2022-12-23T14:08:07.321Z,8.30
2022-12-23T14:10:41.286Z,10.88
2022-12-23T14:13:09.452Z,12.05
2022-12-23T14:16:05.997Z,10.77
2022-12-23T14:19:09.570Z,10.15
2022-12-23T14:22:17.318Z,9.80
2022-12-23T14:25:06.498Z,6.55
2022-12-23T14:28:13.786Z,7.93
2022-12-23T14:30:48.922Z,7.57
2022-12-23T14:33:19.118Z,7.65
2022-12-23T14:36:26.866Z,6.45
2022-12-23T14:39:12.668Z,9.30
2022-12-23T14:41:58.714Z,8.27
2022-12-23T14:44:38.526Z,8.07
2022-12-23T14:47:33.577Z,8.93
2022-12-23T14:50:34.901Z,8.38
2022-12-23T14:53:31.803Z,9.02
2022-12-23T14:56:32.267Z,7.90
2022-12-23T14:59:28.114Z,8.85
2022-12-23T15:02:25.988Z,6.78
2022-12-23T15:05:00.064Z,7.45
2022-12-23T15:07:43.096Z,8.52
2022-12-23T15:10:39.483Z,7.25
2022-12-23T15:13:20.249Z,8.90
2022-12-23T15:16:01.246Z,7.60
2022-12-23T15:18:37.086Z,8.20
2022-12-23T15:21:11.377Z,8.02
2022-12-23T15:23:50.906Z,7.50
2022-12-23T15:26:21.049Z,7.13
2022-12-23T15:28:48.506Z,7.32
2022-12-23T15:31:36.802Z,7.40
2022-12-23T15:34:16.647Z,7.22
2022-12-23T15:36:48.721Z,7.20
2022-12-23T15:39:22.495Z,7.90
2022-12-23T15:41:50.261Z,7.05
2022-12-23T15:44:45.231Z,9.02
2022-12-23T15:47:29.714Z,8.13
2022-12-23T15:50:00.171Z,7.45
2022-12-23T15:52:32.804Z,9.63
2022-12-23T15:55:29.703Z,7.70
2022-12-23T15:58:01.565Z,8.30
2022-12-23T16:00:38.908Z,7.75
2022-12-23T16:03:22.158Z,8.27
2022-12-23T16:05:50.718Z,9.80
2022-12-23T16:08:29.014Z,7.10
2022-12-23T16:11:06.500Z,8.85
2022-12-23T16:13:35.384Z,8.00
2022-12-23T16:16:42.607Z,8.50
2022-12-23T16:19:38.645Z,7.63
2022-12-23T16:22:32.184Z,6.93
2022-12-23T16:25:15.570Z,7.60
2022-12-23T16:28:11.989Z,6.63
2022-12-23T16:30:54.496Z,5.97
2022-12-23T16:33:37.265Z,7.20
2022-12-23T16:36:33.662Z,5.75
2022-12-23T16:39:12.317Z,5.72
2022-12-23T16:41:42.797Z,6.53
2022-12-23T16:44:09.967Z,6.85
2022-12-23T16:46:40.098Z,6.45
2022-12-23T16:49:12.252Z,6.88
2022-12-23T16:51:56.146Z,8.02
2022-12-23T16:54:26.361Z,7.68
2022-12-23T16:56:53.844Z,6.22
2022-12-23T16:59:28.753Z,6.05
2022-12-23T17:02:03.131Z,5.82
2022-12-23T17:04:33.782Z,4.97
2022-12-23T17:07:05.988Z,5.30
2022-12-23T17:09:33.356Z,5.40
2022-12-23T17:12:02.672Z,6.10
2022-12-23T17:14:30.400Z,6.25
2022-12-23T17:16:58.525Z,6.05
2022-12-23T17:19:29.268Z,6.65
2022-12-23T17:22:01.329Z,7.40
2022-12-23T17:24:37.538Z,7.20
2022-12-23T17:27:25.384Z,7.43
2022-12-23T17:29:53.762Z,7.20
2022-12-23T17:32:24.422Z,4.78
2022-12-23T17:34:52.872Z,4.20
2022-12-23T17:37:23.001Z,4.32
2022-12-23T17:39:51.526Z,3.10
2022-12-23T17:42:25.766Z,2.65
2022-12-23T17:44:54.399Z,3.53
2022-12-23T17:47:22.704Z,3.22
2022-12-23T17:49:50.028Z,4.10
2022-12-23T17:52:20.688Z,4.88
2022-12-23T17:54:49.955Z,5.18
2022-12-23T17:57:31.152Z,6.53
2022-12-23T18:00:03.032Z,9.40
2022-12-23T18:02:36.748Z,8.75
2022-12-23T18:05:28.525Z,5.60
2022-12-23T18:10:39.092Z,6.68
2022-12-23T18:13:24.003Z,5.47
2022-12-23T18:15:56.975Z,5.97
2022-12-23T18:18:37.969Z,6.05
2022-12-23T18:21:17.858Z,5.53
2022-12-23T18:23:54.416Z,5.13
2022-12-23T18:26:24.377Z,4.82
2022-12-23T18:28:55.370Z,5.72
2022-12-23T18:31:24.675Z,3.50
2022-12-23T18:33:58.666Z,4.63
2022-12-23T18:36:28.663Z,5.10
2022-12-23T18:38:57.601Z,5.53
2022-12-23T18:41:34.976Z,5.72
2022-12-23T18:44:16.870Z,5.80
2022-12-23T18:46:54.788Z,4.10
2022-12-23T18:49:26.849Z,4.32
2022-12-23T18:52:08.530Z,4.35
2022-12-23T18:54:39.818Z,4.13
2022-12-23T18:57:11.284Z,4.07
2022-12-23T18:59:39.836Z,3.50
2022-12-23T19:02:08.220Z,3.88
2022-12-23T19:04:38.862Z,3.92
2022-12-23T19:07:06.839Z,3.70
2022-12-23T19:09:37.655Z,3.60
2022-12-23T19:12:05.832Z,4.10
2022-12-23T19:14:33.606Z,6.38
2022-12-23T19:17:01.973Z,5.63
2022-12-23T19:19:35.385Z,5.57
2022-12-23T19:22:03.063Z,7.07
2022-12-23T19:24:51.948Z,4.60
2022-12-23T19:27:25.255Z,4.82
2022-12-23T19:29:55.182Z,3.88
2022-12-23T19:32:26.036Z,4.55
2022-12-23T19:34:55.399Z,4.25
2022-12-23T19:37:25.225Z,3.47
2022-12-23T19:39:52.421Z,3.10
2022-12-23T19:42:26.887Z,2.78
2022-12-23T19:44:55.506Z,1.23
2022-12-23T19:47:27.572Z,1.25
2022-12-23T19:49:55.413Z,1.48
2022-12-23T19:52:30.570Z,0.88
2022-12-23T19:54:59.878Z,0.73
2022-12-23T19:57:30.358Z,0.90
2022-12-23T20:00:02.946Z,0.68
2022-12-23T20:02:35.884Z,0.93
2022-12-23T20:05:03.230Z,0.60
2022-12-23T20:07:30.440Z,0.60
2022-12-23T20:09:57.595Z,0.80
2022-12-23T20:12:28.120Z,0.85
2022-12-23T20:14:55.606Z,0.80
2022-12-23T20:17:22.887Z,0.52
2022-12-23T20:19:50.866Z,0.95
2022-12-23T20:22:18.062Z,0.93
2022-12-23T20:24:45.575Z,0.52
2022-12-23T20:27:20.139Z,0.63
2022-12-23T20:29:49.919Z,0.65
2022-12-23T20:32:22.853Z,0.50
2022-12-23T20:34:52.677Z,0.50
2022-12-23T20:37:20.552Z,0.60
2022-12-23T20:39:47.849Z,0.60
2022-12-23T20:42:18.050Z,0.90
2022-12-23T20:44:46.332Z,0.80
2022-12-23T20:47:16.318Z,0.80
2022-12-23T20:49:46.469Z,0.80
2022-12-23T20:52:13.799Z,0.70
2022-12-23T20:54:44.151Z,0.70
2022-12-23T20:57:14.977Z,0.57
2022-12-23T20:59:45.015Z,0.52
2022-12-23T21:02:19.151Z,0.60
2022-12-23T21:04:55.310Z,0.50
2022-12-23T21:07:26.369Z,0.63
2022-12-23T21:09:53.415Z,0.60
2022-12-23T21:12:32.277Z,0.95
2022-12-23T21:15:02.732Z,0.60
2022-12-23T21:17:36.840Z,0.30
2022-12-23T21:22:41.379Z,0.28
2022-12-23T21:25:11.107Z,0.40
2022-12-23T21:27:43.001Z,0.63
2022-12-23T21:30:20.052Z,0.40
2022-12-23T21:32:48.281Z,0.60
2022-12-23T21:35:18.642Z,0.40
2022-12-23T21:37:46.181Z,0.32
2022-12-23T21:40:17.285Z,0.52
2022-12-23T21:42:46.132Z,0.52
2022-12-23T21:45:13.748Z,0.57
2022-12-23T21:47:41.417Z,0.30
2022-12-23T21:50:12.951Z,0.30
2022-12-23T21:52:40.884Z,0.45
2022-12-23T21:55:10.719Z,0.60
2022-12-23T21:57:39.919Z,0.50
2022-12-23T22:00:07.998Z,0.60
2022-12-23T22:02:35.524Z,0.40
2022-12-23T22:05:06.320Z,0.32
2022-12-23T22:07:33.528Z,0.70
2022-12-23T22:10:00.593Z,1.58
2022-12-23T22:12:32.107Z,2.42
2022-12-23T22:14:59.757Z,5.10
2022-12-23T22:17:26.879Z,8.35
2022-12-23T22:19:57.619Z,8.98
2022-12-23T22:22:28.621Z,11.52
2022-12-23T22:24:56.141Z,13.80
2022-12-23T22:27:23.945Z,15.63
2022-12-23T22:29:59.795Z,16.48
2022-12-23T22:32:39.071Z,16.58
2022-12-23T22:35:09.822Z,12.63
2022-12-23T22:37:43.668Z,6.32
2022-12-23T22:40:13.990Z,4.22
2022-12-23T22:42:42.078Z,1.33
2022-12-23T22:45:15.673Z,1.00
2022-12-23T22:47:45.537Z,0.60
2022-12-23T22:50:15.374Z,0.47
2022-12-23T22:52:48.335Z,0.60
2022-12-23T22:55:15.532Z,1.50
2022-12-23T22:57:43.395Z,2.13
2022-12-23T23:00:12.952Z,3.72
2022-12-23T23:02:40.572Z,3.20
2022-12-23T23:05:13.234Z,3.33
2022-12-23T23:07:40.593Z,2.80
2022-12-23T23:10:08.976Z,3.13
2022-12-23T23:12:38.896Z,4.25
2022-12-23T23:15:13.316Z,4.32
2022-12-23T23:17:42.901Z,5.13
2022-12-23T23:20:15.024Z,5.00
2022-12-23T23:22:44.722Z,6.00
2022-12-23T23:25:15.936Z,5.53
2022-12-23T23:27:46.830Z,3.83
2022-12-23T23:30:19.903Z,4.97
2022-12-23T23:32:54.998Z,6.25
2022-12-23T23:35:22.711Z,5.97
2022-12-23T23:37:49.938Z,5.80
2022-12-23T23:40:22.428Z,4.25
2022-12-23T23:42:49.979Z,3.20
2022-12-23T23:45:17.150Z,2.17
2022-12-23T23:47:44.595Z,1.38
2022-12-23T23:50:12.314Z,1.30
2022-12-23T23:52:39.472Z,1.30
2022-12-23T23:55:07.473Z,2.00
2022-12-23T23:57:38.380Z,3.10
